Terminal Aerodrome Forecast
Issued by NWS Quad Cities IA IL

Home | Current Version | Previous Version | Text Only | Print | Product List | Glossary On
Versions: 1 2 3 4 5 6 7 8 9 10 11 12 13 14 15 16 17 18 19 20 21 22
000
FTUS43 KDVN 151700
TAFDBQ
TAF
KDBQ 151720Z 1518/1618 29012KT P6SM BKN050
     FM152200 27006KT P6SM SKC
     FM160800 14013KT P6SM BKN200
     FM161400 18014G33KT P6SM BKN200=

USA.gov is the U.S. government's official web portal to all federal, state and local government web resources and services.